sensor_id;sensor_type;location;lat;lon;timestamp;pressure;altitude;pressure_sealevel;temperature
68012;BMP180;54794;48.348;7.878;2024-03-02T00:00:24;97877.00;;;6.60
68012;BMP180;54794;48.348;7.878;2024-03-02T00:02:52;97885.00;;;6.60
68012;BMP180;54794;48.348;7.878;2024-03-02T00:05:21;97870.00;;;6.50
68012;BMP180;54794;48.348;7.878;2024-03-02T00:07:57;97881.00;;;6.40
68012;BMP180;54794;48.348;7.878;2024-03-02T00:10:40;97887.00;;;6.30
68012;BMP180;54794;48.348;7.878;2024-03-02T00:13:08;97883.00;;;6.40
68012;BMP180;54794;48.348;7.878;2024-03-02T00:15:47;97887.00;;;6.30
68012;BMP180;54794;48.348;7.878;2024-03-02T00:18:31;97889.00;;;6.20
68012;BMP180;54794;48.348;7.878;2024-03-02T00:21:00;97891.00;;;6.20
68012;BMP180;54794;48.348;7.878;2024-03-02T00:23:30;97889.00;;;6.30
68012;BMP180;54794;48.348;7.878;2024-03-02T00:25:58;97887.00;;;6.30
68012;BMP180;54794;48.348;7.878;2024-03-02T00:28:31;97894.00;;;6.20
68012;BMP180;54794;48.348;7.878;2024-03-02T00:31:10;97902.00;;;6.40
68012;BMP180;54794;48.348;7.878;2024-03-02T00:33:42;97902.00;;;6.30
68012;BMP180;54794;48.348;7.878;2024-03-02T00:36:13;97917.00;;;6.30
68012;BMP180;54794;48.348;7.878;2024-03-02T00:38:48;97906.00;;;6.10
68012;BMP180;54794;48.348;7.878;2024-03-02T00:41:27;97899.00;;;6.10
68012;BMP180;54794;48.348;7.878;2024-03-02T00:44:01;97902.00;;;6.00
68012;BMP180;54794;48.348;7.878;2024-03-02T00:46:33;97896.00;;;6.10
68012;BMP180;54794;48.348;7.878;2024-03-02T00:49:12;97906.00;;;6.00
68012;BMP180;54794;48.348;7.878;2024-03-02T00:51:47;97902.00;;;5.80
68012;BMP180;54794;48.348;7.878;2024-03-02T00:54:23;97904.00;;;6.00
68012;BMP180;54794;48.348;7.878;2024-03-02T00:56:53;97897.00;;;5.90
68012;BMP180;54794;48.348;7.878;2024-03-02T00:59:25;97897.00;;;5.90
68012;BMP180;54794;48.348;7.878;2024-03-02T01:01:52;97894.00;;;5.80
68012;BMP180;54794;48.348;7.878;2024-03-02T01:04:20;97898.00;;;6.00
68012;BMP180;54794;48.348;7.878;2024-03-02T01:06:47;97900.00;;;6.00
68012;BMP180;54794;48.348;7.878;2024-03-02T01:09:15;97890.00;;;6.00
68012;BMP180;54794;48.348;7.878;2024-03-02T01:11:43;97888.00;;;6.00
68012;BMP180;54794;48.348;7.878;2024-03-02T01:14:10;97898.00;;;6.00
68012;BMP180;54794;48.348;7.878;2024-03-02T01:16:37;97894.00;;;5.90
68012;BMP180;54794;48.348;7.878;2024-03-02T01:19:04;97890.00;;;6.00
68012;BMP180;54794;48.348;7.878;2024-03-02T01:21:31;97892.00;;;6.10
68012;BMP180;54794;48.348;7.878;2024-03-02T01:24:00;97888.00;;;6.00
68012;BMP180;54794;48.348;7.878;2024-03-02T01:26:27;97905.00;;;5.90
68012;BMP180;54794;48.348;7.878;2024-03-02T01:28:54;97893.00;;;5.80
68012;BMP180;54794;48.348;7.878;2024-03-02T01:31:21;97891.00;;;5.90
68012;BMP180;54794;48.348;7.878;2024-03-02T01:33:48;97892.00;;;5.90
68012;BMP180;54794;48.348;7.878;2024-03-02T01:36:15;97889.00;;;5.80
68012;BMP180;54794;48.348;7.878;2024-03-02T01:38:42;97893.00;;;5.80
68012;BMP180;54794;48.348;7.878;2024-03-02T01:41:08;97882.00;;;5.80
68012;BMP180;54794;48.348;7.878;2024-03-02T01:43:35;97887.00;;;5.70
68012;BMP180;54794;48.348;7.878;2024-03-02T01:46:05;97897.00;;;5.50
68012;BMP180;54794;48.348;7.878;2024-03-02T01:48:32;97890.00;;;5.40
68012;BMP180;54794;48.348;7.878;2024-03-02T01:51:00;97899.00;;;5.60
68012;BMP180;54794;48.348;7.878;2024-03-02T01:53:28;97889.00;;;5.60
68012;BMP180;54794;48.348;7.878;2024-03-02T01:55:55;97887.00;;;5.60
68012;BMP180;54794;48.348;7.878;2024-03-02T01:58:22;97881.00;;;5.50
68012;BMP180;54794;48.348;7.878;2024-03-02T02:00:49;97873.00;;;5.60
68012;BMP180;54794;48.348;7.878;2024-03-02T02:03:17;97876.00;;;5.80
68012;BMP180;54794;48.348;7.878;2024-03-02T02:05:44;97871.00;;;5.70
68012;BMP180;54794;48.348;7.878;2024-03-02T02:08:11;97868.00;;;5.70
68012;BMP180;54794;48.348;7.878;2024-03-02T02:10:38;97865.00;;;5.70
68012;BMP180;54794;48.348;7.878;2024-03-02T02:13:05;97865.00;;;5.80
68012;BMP180;54794;48.348;7.878;2024-03-02T02:15:31;97862.00;;;5.80
68012;BMP180;54794;48.348;7.878;2024-03-02T02:18:01;97860.00;;;5.40
68012;BMP180;54794;48.348;7.878;2024-03-02T02:20:28;97869.00;;;5.60
68012;BMP180;54794;48.348;7.878;2024-03-02T02:23:03;97863.00;;;5.30
68012;BMP180;54794;48.348;7.878;2024-03-02T02:25:32;97851.00;;;5.50
68012;BMP180;54794;48.348;7.878;2024-03-02T02:27:59;97856.00;;;5.60
68012;BMP180;54794;48.348;7.878;2024-03-02T02:30:30;97859.00;;;5.50
68012;BMP180;54794;48.348;7.878;2024-03-02T02:32:58;97846.00;;;5.80
68012;BMP180;54794;48.348;7.878;2024-03-02T02:35:26;97858.00;;;5.70
68012;BMP180;54794;48.348;7.878;2024-03-02T02:37:55;97844.00;;;5.50
68012;BMP180;54794;48.348;7.878;2024-03-02T02:40:22;97848.00;;;5.50
68012;BMP180;54794;48.348;7.878;2024-03-02T02:42:49;97839.00;;;5.60
68012;BMP180;54794;48.348;7.878;2024-03-02T02:45:19;97844.00;;;5.30
68012;BMP180;54794;48.348;7.878;2024-03-02T02:47:46;97842.00;;;5.40
68012;BMP180;54794;48.348;7.878;2024-03-02T02:50:13;97839.00;;;5.20
68012;BMP180;54794;48.348;7.878;2024-03-02T02:52:42;97836.00;;;5.30
68012;BMP180;54794;48.348;7.878;2024-03-02T02:55:12;97830.00;;;5.10
68012;BMP180;54794;48.348;7.878;2024-03-02T02:57:41;97840.00;;;5.00
68012;BMP180;54794;48.348;7.878;2024-03-02T03:00:17;97833.00;;;5.20
68012;BMP180;54794;48.348;7.878;2024-03-02T03:02:49;97829.00;;;5.00
68012;BMP180;54794;48.348;7.878;2024-03-02T03:05:18;97833.00;;;4.90
68012;BMP180;54794;48.348;7.878;2024-03-02T03:07:45;97828.00;;;4.30
68012;BMP180;54794;48.348;7.878;2024-03-02T03:10:15;97836.00;;;4.70
68012;BMP180;54794;48.348;7.878;2024-03-02T03:12:43;97830.00;;;4.60
68012;BMP180;54794;48.348;7.878;2024-03-02T03:15:11;97832.00;;;4.60
68012;BMP180;54794;48.348;7.878;2024-03-02T03:17:39;97822.00;;;4.60
68012;BMP180;54794;48.348;7.878;2024-03-02T03:20:07;97816.00;;;4.50
68012;BMP180;54794;48.348;7.878;2024-03-02T03:22:40;97826.00;;;4.70
68012;BMP180;54794;48.348;7.878;2024-03-02T03:25:07;97820.00;;;4.80
68012;BMP180;54794;48.348;7.878;2024-03-02T03:27:37;97820.00;;;4.90
68012;BMP180;54794;48.348;7.878;2024-03-02T03:30:05;97804.00;;;4.90
68012;BMP180;54794;48.348;7.878;2024-03-02T03:32:33;97813.00;;;5.00
68012;BMP180;54794;48.348;7.878;2024-03-02T03:35:00;97809.00;;;4.90
68012;BMP180;54794;48.348;7.878;2024-03-02T03:37:26;97809.00;;;4.80
68012;BMP180;54794;48.348;7.878;2024-03-02T03:40:00;97816.00;;;4.80
68012;BMP180;54794;48.348;7.878;2024-03-02T03:42:28;97817.00;;;4.80
68012;BMP180;54794;48.348;7.878;2024-03-02T03:44:55;97821.00;;;4.80
68012;BMP180;54794;48.348;7.878;2024-03-02T03:47:22;97829.00;;;5.00
68012;BMP180;54794;48.348;7.878;2024-03-02T03:49:49;97834.00;;;4.80
68012;BMP180;54794;48.348;7.878;2024-03-02T03:52:16;97840.00;;;4.80
68012;BMP180;54794;48.348;7.878;2024-03-02T03:54:42;97844.00;;;5.10
68012;BMP180;54794;48.348;7.878;2024-03-02T03:57:11;97849.00;;;5.00
68012;BMP180;54794;48.348;7.878;2024-03-02T03:59:41;97848.00;;;4.90
68012;BMP180;54794;48.348;7.878;2024-03-02T04:02:09;97849.00;;;5.00
68012;BMP180;54794;48.348;7.878;2024-03-02T04:04:36;97841.00;;;5.00
68012;BMP180;54794;48.348;7.878;2024-03-02T04:07:03;97843.00;;;4.90
68012;BMP180;54794;48.348;7.878;2024-03-02T04:09:30;97847.00;;;4.90
68012;BMP180;54794;48.348;7.878;2024-03-02T04:11:56;97852.00;;;4.40
68012;BMP180;54794;48.348;7.878;2024-03-02T04:14:23;97845.00;;;4.50
68012;BMP180;54794;48.348;7.878;2024-03-02T04:16:50;97856.00;;;4.70
68012;BMP180;54794;48.348;7.878;2024-03-02T04:19:20;97859.00;;;4.30
68012;BMP180;54794;48.348;7.878;2024-03-02T04:21:46;97856.00;;;4.30
68012;BMP180;54794;48.348;7.878;2024-03-02T04:24:13;97857.00;;;4.40
68012;BMP180;54794;48.348;7.878;2024-03-02T04:26:40;97859.00;;;4.40
68012;BMP180;54794;48.348;7.878;2024-03-02T04:29:07;97848.00;;;4.60
68012;BMP180;54794;48.348;7.878;2024-03-02T04:31:34;97855.00;;;4.70
68012;BMP180;54794;48.348;7.878;2024-03-02T04:34:01;97862.00;;;4.70
68012;BMP180;54794;48.348;7.878;2024-03-02T04:36:28;97854.00;;;4.60
68012;BMP180;54794;48.348;7.878;2024-03-02T04:38:55;97857.00;;;4.70
68012;BMP180;54794;48.348;7.878;2024-03-02T04:41:22;97848.00;;;4.70
68012;BMP180;54794;48.348;7.878;2024-03-02T04:43:49;97860.00;;;4.40
68012;BMP180;54794;48.348;7.878;2024-03-02T04:46:17;97861.00;;;4.70
68012;BMP180;54794;48.348;7.878;2024-03-02T04:48:44;97865.00;;;4.40
68012;BMP180;54794;48.348;7.878;2024-03-02T04:51:11;97861.00;;;4.40
68012;BMP180;54794;48.348;7.878;2024-03-02T04:53:42;97869.00;;;4.40
68012;BMP180;54794;48.348;7.878;2024-03-02T04:56:09;97851.00;;;4.70
68012;BMP180;54794;48.348;7.878;2024-03-02T04:59:02;97860.00;;;4.40
68012;BMP180;54794;48.348;7.878;2024-03-02T05:01:29;97849.00;;;4.40
68012;BMP180;54794;48.348;7.878;2024-03-02T05:03:56;97851.00;;;4.50
68012;BMP180;54794;48.348;7.878;2024-03-02T05:06:23;97856.00;;;4.70
68012;BMP180;54794;48.348;7.878;2024-03-02T05:08:50;97867.00;;;4.80
68012;BMP180;54794;48.348;7.878;2024-03-02T05:11:17;97844.00;;;4.80
68012;BMP180;54794;48.348;7.878;2024-03-02T05:14:03;97850.00;;;4.60
68012;BMP180;54794;48.348;7.878;2024-03-02T05:16:36;97848.00;;;4.40
68012;BMP180;54794;48.348;7.878;2024-03-02T05:19:05;97859.00;;;4.10
68012;BMP180;54794;48.348;7.878;2024-03-02T05:21:35;97856.00;;;4.50
68012;BMP180;54794;48.348;7.878;2024-03-02T05:24:04;97859.00;;;4.50
68012;BMP180;54794;48.348;7.878;2024-03-02T05:26:31;97846.00;;;4.60
68012;BMP180;54794;48.348;7.878;2024-03-02T05:28:58;97844.00;;;4.50
68012;BMP180;54794;48.348;7.878;2024-03-02T05:31:25;97855.00;;;4.30
68012;BMP180;54794;48.348;7.878;2024-03-02T05:33:52;97850.00;;;4.50
68012;BMP180;54794;48.348;7.878;2024-03-02T05:36:23;97860.00;;;4.30
68012;BMP180;54794;48.348;7.878;2024-03-02T05:38:50;97862.00;;;4.20
68012;BMP180;54794;48.348;7.878;2024-03-02T05:41:18;97873.00;;;4.20
68012;BMP180;54794;48.348;7.878;2024-03-02T05:43:45;97876.00;;;4.00
68012;BMP180;54794;48.348;7.878;2024-03-02T05:46:12;97870.00;;;3.80
68012;BMP180;54794;48.348;7.878;2024-03-02T05:48:39;97865.00;;;4.20
68012;BMP180;54794;48.348;7.878;2024-03-02T05:51:06;97868.00;;;4.20
68012;BMP180;54794;48.348;7.878;2024-03-02T05:53:33;97868.00;;;4.10
68012;BMP180;54794;48.348;7.878;2024-03-02T05:56:00;97867.00;;;4.00
68012;BMP180;54794;48.348;7.878;2024-03-02T05:58:31;97858.00;;;4.10
68012;BMP180;54794;48.348;7.878;2024-03-02T06:01:34;97856.00;;;4.40
68012;BMP180;54794;48.348;7.878;2024-03-02T06:04:01;97849.00;;;4.40
68012;BMP180;54794;48.348;7.878;2024-03-02T06:06:28;97861.00;;;4.50
68012;BMP180;54794;48.348;7.878;2024-03-02T06:08:55;97862.00;;;4.50
68012;BMP180;54794;48.348;7.878;2024-03-02T06:11:25;97862.00;;;4.60
68012;BMP180;54794;48.348;7.878;2024-03-02T06:13:52;97855.00;;;4.70
68012;BMP180;54794;48.348;7.878;2024-03-02T06:16:19;97860.00;;;4.80
68012;BMP180;54794;48.348;7.878;2024-03-02T06:18:46;97856.00;;;5.00
68012;BMP180;54794;48.348;7.878;2024-03-02T06:21:13;97848.00;;;5.00
68012;BMP180;54794;48.348;7.878;2024-03-02T06:23:40;97846.00;;;5.10
68012;BMP180;54794;48.348;7.878;2024-03-02T06:26:07;97841.00;;;5.30
68012;BMP180;54794;48.348;7.878;2024-03-02T06:28:34;97834.00;;;5.20
68012;BMP180;54794;48.348;7.878;2024-03-02T06:31:02;97839.00;;;5.30
68012;BMP180;54794;48.348;7.878;2024-03-02T06:33:29;97842.00;;;5.20
68012;BMP180;54794;48.348;7.878;2024-03-02T06:35:56;97831.00;;;5.40
68012;BMP180;54794;48.348;7.878;2024-03-02T06:38:23;97844.00;;;5.00
68012;BMP180;54794;48.348;7.878;2024-03-02T06:40:50;97857.00;;;4.70
68012;BMP180;54794;48.348;7.878;2024-03-02T06:43:19;97845.00;;;5.10
68012;BMP180;54794;48.348;7.878;2024-03-02T06:45:51;97844.00;;;5.10
68012;BMP180;54794;48.348;7.878;2024-03-02T06:48:19;97846.00;;;5.00
68012;BMP180;54794;48.348;7.878;2024-03-02T06:50:50;97839.00;;;5.10
68012;BMP180;54794;48.348;7.878;2024-03-02T06:53:17;97853.00;;;5.20
68012;BMP180;54794;48.348;7.878;2024-03-02T06:55:47;97855.00;;;5.20
68012;BMP180;54794;48.348;7.878;2024-03-02T06:58:14;97840.00;;;5.40
68012;BMP180;54794;48.348;7.878;2024-03-02T07:00:44;97854.00;;;5.30
68012;BMP180;54794;48.348;7.878;2024-03-02T07:03:11;97844.00;;;5.50
68012;BMP180;54794;48.348;7.878;2024-03-02T07:05:39;97844.00;;;5.90
68012;BMP180;54794;48.348;7.878;2024-03-02T07:08:06;97845.00;;;5.90
68012;BMP180;54794;48.348;7.878;2024-03-02T07:10:33;97845.00;;;5.90
68012;BMP180;54794;48.348;7.878;2024-03-02T07:13:00;97849.00;;;5.80
68012;BMP180;54794;48.348;7.878;2024-03-02T07:15:27;97852.00;;;5.80
68012;BMP180;54794;48.348;7.878;2024-03-02T07:17:55;97844.00;;;5.80
68012;BMP180;54794;48.348;7.878;2024-03-02T07:20:22;97845.00;;;5.70
68012;BMP180;54794;48.348;7.878;2024-03-02T07:22:49;97843.00;;;5.60
68012;BMP180;54794;48.348;7.878;2024-03-02T07:25:15;97848.00;;;5.70
68012;BMP180;54794;48.348;7.878;2024-03-02T07:27:45;97842.00;;;5.50
68012;BMP180;54794;48.348;7.878;2024-03-02T07:30:15;97844.00;;;5.80
68012;BMP180;54794;48.348;7.878;2024-03-02T07:32:45;97847.00;;;5.90
68012;BMP180;54794;48.348;7.878;2024-03-02T07:35:13;97850.00;;;6.20
68012;BMP180;54794;48.348;7.878;2024-03-02T07:37:42;97846.00;;;6.20
68012;BMP180;54794;48.348;7.878;2024-03-02T07:40:10;97845.00;;;6.40
68012;BMP180;54794;48.348;7.878;2024-03-02T07:42:41;97844.00;;;6.60
68012;BMP180;54794;48.348;7.878;2024-03-02T07:45:08;97844.00;;;6.70
68012;BMP180;54794;48.348;7.878;2024-03-02T07:47:35;97837.00;;;6.70
68012;BMP180;54794;48.348;7.878;2024-03-02T07:50:03;97840.00;;;6.80
68012;BMP180;54794;48.348;7.878;2024-03-02T07:52:33;97839.00;;;6.90
68012;BMP180;54794;48.348;7.878;2024-03-02T07:55:00;97839.00;;;7.10
68012;BMP180;54794;48.348;7.878;2024-03-02T07:57:27;97836.00;;;7.20
68012;BMP180;54794;48.348;7.878;2024-03-02T07:59:54;97831.00;;;7.30
68012;BMP180;54794;48.348;7.878;2024-03-02T08:02:21;97835.00;;;7.20
68012;BMP180;54794;48.348;7.878;2024-03-02T08:04:48;97841.00;;;7.30
68012;BMP180;54794;48.348;7.878;2024-03-02T08:07:15;97831.00;;;7.40
68012;BMP180;54794;48.348;7.878;2024-03-02T08:09:42;97827.00;;;7.60
68012;BMP180;54794;48.348;7.878;2024-03-02T08:12:09;97838.00;;;7.60
68012;BMP180;54794;48.348;7.878;2024-03-02T08:14:38;97836.00;;;7.60
68012;BMP180;54794;48.348;7.878;2024-03-02T08:17:08;97838.00;;;7.70
68012;BMP180;54794;48.348;7.878;2024-03-02T08:19:37;97839.00;;;8.00
68012;BMP180;54794;48.348;7.878;2024-03-02T08:22:04;97836.00;;;8.20
68012;BMP180;54794;48.348;7.878;2024-03-02T08:24:32;97835.00;;;8.10
68012;BMP180;54794;48.348;7.878;2024-03-02T08:26:59;97831.00;;;8.40
68012;BMP180;54794;48.348;7.878;2024-03-02T08:29:27;97823.00;;;8.60
68012;BMP180;54794;48.348;7.878;2024-03-02T08:31:54;97821.00;;;8.90
68012;BMP180;54794;48.348;7.878;2024-03-02T08:34:21;97831.00;;;8.90
68012;BMP180;54794;48.348;7.878;2024-03-02T08:36:48;97834.00;;;8.90
68012;BMP180;54794;48.348;7.878;2024-03-02T08:39:15;97824.00;;;9.20
68012;BMP180;54794;48.348;7.878;2024-03-02T08:41:44;97829.00;;;9.40
68012;BMP180;54794;48.348;7.878;2024-03-02T08:44:13;97827.00;;;9.40
68012;BMP180;54794;48.348;7.878;2024-03-02T08:46:40;97817.00;;;9.60
68012;BMP180;54794;48.348;7.878;2024-03-02T08:49:07;97818.00;;;9.60
68012;BMP180;54794;48.348;7.878;2024-03-02T08:51:34;97814.00;;;9.80
68012;BMP180;54794;48.348;7.878;2024-03-02T08:54:04;97811.00;;;10.00
68012;BMP180;54794;48.348;7.878;2024-03-02T08:56:32;97826.00;;;10.10
68012;BMP180;54794;48.348;7.878;2024-03-02T08:58:59;97825.00;;;10.10
68012;BMP180;54794;48.348;7.878;2024-03-02T09:01:26;97817.00;;;10.20
68012;BMP180;54794;48.348;7.878;2024-03-02T09:03:53;97821.00;;;10.00
68012;BMP180;54794;48.348;7.878;2024-03-02T09:06:22;97819.00;;;10.30
68012;BMP180;54794;48.348;7.878;2024-03-02T09:08:54;97813.00;;;10.30
68012;BMP180;54794;48.348;7.878;2024-03-02T09:11:21;97818.00;;;10.40
68012;BMP180;54794;48.348;7.878;2024-03-02T09:13:53;97810.00;;;10.60
68012;BMP180;54794;48.348;7.878;2024-03-02T09:16:35;97817.00;;;10.80
68012;BMP180;54794;48.348;7.878;2024-03-02T09:19:02;97818.00;;;10.70
68012;BMP180;54794;48.348;7.878;2024-03-02T09:21:35;97812.00;;;10.80
68012;BMP180;54794;48.348;7.878;2024-03-02T09:24:02;97804.00;;;10.70
68012;BMP180;54794;48.348;7.878;2024-03-02T09:26:30;97804.00;;;10.90
68012;BMP180;54794;48.348;7.878;2024-03-02T09:28:57;97796.00;;;10.90
68012;BMP180;54794;48.348;7.878;2024-03-02T09:31:24;97800.00;;;11.10
68012;BMP180;54794;48.348;7.878;2024-03-02T09:33:51;97805.00;;;11.20
68012;BMP180;54794;48.348;7.878;2024-03-02T09:36:22;97798.00;;;11.30
68012;BMP180;54794;48.348;7.878;2024-03-02T09:38:50;97798.00;;;11.60
68012;BMP180;54794;48.348;7.878;2024-03-02T09:41:16;97793.00;;;11.70
68012;BMP180;54794;48.348;7.878;2024-03-02T09:43:44;97790.00;;;12.00
68012;BMP180;54794;48.348;7.878;2024-03-02T09:46:11;97800.00;;;11.90
68012;BMP180;54794;48.348;7.878;2024-03-02T09:48:38;97782.00;;;11.90
68012;BMP180;54794;48.348;7.878;2024-03-02T09:51:05;97791.00;;;12.00
68012;BMP180;54794;48.348;7.878;2024-03-02T09:53:33;97782.00;;;12.00
68012;BMP180;54794;48.348;7.878;2024-03-02T09:56:01;97793.00;;;12.10
68012;BMP180;54794;48.348;7.878;2024-03-02T09:58:28;97776.00;;;11.80
68012;BMP180;54794;48.348;7.878;2024-03-02T10:00:56;97777.00;;;12.10
68012;BMP180;54794;48.348;7.878;2024-03-02T10:03:23;97779.00;;;12.30
68012;BMP180;54794;48.348;7.878;2024-03-02T10:05:53;97762.00;;;12.50
68012;BMP180;54794;48.348;7.878;2024-03-02T10:08:19;97774.00;;;12.60
68012;BMP180;54794;48.348;7.878;2024-03-02T10:10:46;97762.00;;;12.70
68012;BMP180;54794;48.348;7.878;2024-03-02T10:13:14;97754.00;;;12.80
68012;BMP180;54794;48.348;7.878;2024-03-02T10:15:41;97757.00;;;12.80
68012;BMP180;54794;48.348;7.878;2024-03-02T10:18:10;97754.00;;;12.80
68012;BMP180;54794;48.348;7.878;2024-03-02T10:20:40;97753.00;;;12.80
68012;BMP180;54794;48.348;7.878;2024-03-02T10:23:13;97759.00;;;12.70
68012;BMP180;54794;48.348;7.878;2024-03-02T10:25:42;97766.00;;;12.80
68012;BMP180;54794;48.348;7.878;2024-03-02T10:28:23;97757.00;;;12.90
68012;BMP180;54794;48.348;7.878;2024-03-02T10:30:51;97741.00;;;12.90
68012;BMP180;54794;48.348;7.878;2024-03-02T10:33:20;97743.00;;;13.10
68012;BMP180;54794;48.348;7.878;2024-03-02T10:35:49;97748.00;;;12.90
68012;BMP180;54794;48.348;7.878;2024-03-02T10:38:17;97741.00;;;13.10
68012;BMP180;54794;48.348;7.878;2024-03-02T10:40:50;97743.00;;;13.20
68012;BMP180;54794;48.348;7.878;2024-03-02T10:43:18;97734.00;;;13.30
68012;BMP180;54794;48.348;7.878;2024-03-02T10:45:49;97736.00;;;13.40
68012;BMP180;54794;48.348;7.878;2024-03-02T10:48:18;97733.00;;;13.30
68012;BMP180;54794;48.348;7.878;2024-03-02T10:50:45;97730.00;;;13.40
68012;BMP180;54794;48.348;7.878;2024-03-02T10:53:12;97730.00;;;13.40
68012;BMP180;54794;48.348;7.878;2024-03-02T10:55:39;97713.00;;;13.50
68012;BMP180;54794;48.348;7.878;2024-03-02T10:58:08;97720.00;;;13.80
68012;BMP180;54794;48.348;7.878;2024-03-02T11:00:41;97716.00;;;13.90
68012;BMP180;54794;48.348;7.878;2024-03-02T11:03:12;97709.00;;;13.90
68012;BMP180;54794;48.348;7.878;2024-03-02T11:05:44;97708.00;;;14.00
68012;BMP180;54794;48.348;7.878;2024-03-02T11:08:17;97716.00;;;14.00
68012;BMP180;54794;48.348;7.878;2024-03-02T11:10:51;97709.00;;;14.10
68012;BMP180;54794;48.348;7.878;2024-03-02T11:13:27;97696.00;;;14.20
68012;BMP180;54794;48.348;7.878;2024-03-02T11:16:04;97707.00;;;14.40
68012;BMP180;54794;48.348;7.878;2024-03-02T11:18:33;97699.00;;;14.30
68012;BMP180;54794;48.348;7.878;2024-03-02T11:21:03;97700.00;;;14.30
68012;BMP180;54794;48.348;7.878;2024-03-02T11:23:34;97700.00;;;14.40
68012;BMP180;54794;48.348;7.878;2024-03-02T11:26:21;97693.00;;;14.50
68012;BMP180;54794;48.348;7.878;2024-03-02T11:28:49;97694.00;;;14.50
68012;BMP180;54794;48.348;7.878;2024-03-02T11:31:15;97682.00;;;14.40
68012;BMP180;54794;48.348;7.878;2024-03-02T11:34:46;97681.00;;;14.70
68012;BMP180;54794;48.348;7.878;2024-03-02T11:37:19;97677.00;;;14.90
68012;BMP180;54794;48.348;7.878;2024-03-02T11:39:50;97684.00;;;15.00
68012;BMP180;54794;48.348;7.878;2024-03-02T11:42:18;97670.00;;;15.00
68012;BMP180;54794;48.348;7.878;2024-03-02T11:44:47;97669.00;;;15.10
68012;BMP180;54794;48.348;7.878;2024-03-02T11:47:17;97657.00;;;15.20
68012;BMP180;54794;48.348;7.878;2024-03-02T11:49:51;97670.00;;;15.50
68012;BMP180;54794;48.348;7.878;2024-03-02T11:52:18;97652.00;;;15.40
68012;BMP180;54794;48.348;7.878;2024-03-02T11:54:48;97657.00;;;15.60
68012;BMP180;54794;48.348;7.878;2024-03-02T11:57:20;97657.00;;;15.60
68012;BMP180;54794;48.348;7.878;2024-03-02T11:59:52;97646.00;;;15.90
68012;BMP180;54794;48.348;7.878;2024-03-02T12:02:20;97642.00;;;15.90
68012;BMP180;54794;48.348;7.878;2024-03-02T12:04:49;97640.00;;;15.90
68012;BMP180;54794;48.348;7.878;2024-03-02T12:07:20;97645.00;;;15.90
68012;BMP180;54794;48.348;7.878;2024-03-02T12:10:01;97637.00;;;15.90
68012;BMP180;54794;48.348;7.878;2024-03-02T12:12:32;97631.00;;;16.00
68012;BMP180;54794;48.348;7.878;2024-03-02T12:15:02;97632.00;;;16.30
68012;BMP180;54794;48.348;7.878;2024-03-02T12:17:32;97624.00;;;16.20
68012;BMP180;54794;48.348;7.878;2024-03-02T12:20:02;97628.00;;;16.30
68012;BMP180;54794;48.348;7.878;2024-03-02T12:22:34;97632.00;;;16.20
68012;BMP180;54794;48.348;7.878;2024-03-02T12:25:01;97623.00;;;16.10
68012;BMP180;54794;48.348;7.878;2024-03-02T12:27:34;97618.00;;;16.10
68012;BMP180;54794;48.348;7.878;2024-03-02T12:30:13;97613.00;;;16.20
68012;BMP180;54794;48.348;7.878;2024-03-02T12:32:45;97614.00;;;16.30
68012;BMP180;54794;48.348;7.878;2024-03-02T12:35:18;97612.00;;;16.00
68012;BMP180;54794;48.348;7.878;2024-03-02T12:37:51;97603.00;;;16.10
68012;BMP180;54794;48.348;7.878;2024-03-02T12:40:20;97593.00;;;16.20
68012;BMP180;54794;48.348;7.878;2024-03-02T12:42:50;97588.00;;;16.30
68012;BMP180;54794;48.348;7.878;2024-03-02T12:45:18;97601.00;;;16.20
68012;BMP180;54794;48.348;7.878;2024-03-02T12:47:54;97598.00;;;16.30
68012;BMP180;54794;48.348;7.878;2024-03-02T12:50:24;97598.00;;;16.50
68012;BMP180;54794;48.348;7.878;2024-03-02T12:52:55;97589.00;;;16.50
68012;BMP180;54794;48.348;7.878;2024-03-02T12:55:23;97585.00;;;17.10
68012;BMP180;54794;48.348;7.878;2024-03-02T12:57:52;97580.00;;;17.00
68012;BMP180;54794;48.348;7.878;2024-03-02T13:00:21;97576.00;;;17.30
68012;BMP180;54794;48.348;7.878;2024-03-02T13:02:50;97574.00;;;17.40
68012;BMP180;54794;48.348;7.878;2024-03-02T13:05:19;97579.00;;;17.50
68012;BMP180;54794;48.348;7.878;2024-03-02T13:07:50;97567.00;;;17.10
68012;BMP180;54794;48.348;7.878;2024-03-02T13:10:17;97575.00;;;17.90
68012;BMP180;54794;48.348;7.878;2024-03-02T13:12:45;97571.00;;;18.10
68012;BMP180;54794;48.348;7.878;2024-03-02T13:15:13;97564.00;;;18.70
68012;BMP180;54794;48.348;7.878;2024-03-02T13:17:45;97560.00;;;18.70
68012;BMP180;54794;48.348;7.878;2024-03-02T13:20:16;97554.00;;;18.40
68012;BMP180;54794;48.348;7.878;2024-03-02T13:22:45;97562.00;;;17.60
68012;BMP180;54794;48.348;7.878;2024-03-02T13:25:11;97557.00;;;17.90
68012;BMP180;54794;48.348;7.878;2024-03-02T13:27:39;97555.00;;;18.80
68012;BMP180;54794;48.348;7.878;2024-03-02T13:30:07;97556.00;;;19.10
68012;BMP180;54794;48.348;7.878;2024-03-02T13:32:36;97549.00;;;19.10
68012;BMP180;54794;48.348;7.878;2024-03-02T13:35:09;97548.00;;;19.30
68012;BMP180;54794;48.348;7.878;2024-03-02T13:37:44;97559.00;;;19.20
68012;BMP180;54794;48.348;7.878;2024-03-02T13:40:11;97552.00;;;19.30
68012;BMP180;54794;48.348;7.878;2024-03-02T13:42:47;97549.00;;;19.40
68012;BMP180;54794;48.348;7.878;2024-03-02T13:45:18;97543.00;;;19.90
68012;BMP180;54794;48.348;7.878;2024-03-02T13:48:12;97548.00;;;19.00
68012;BMP180;54794;48.348;7.878;2024-03-02T13:50:49;97538.00;;;18.70
68012;BMP180;54794;48.348;7.878;2024-03-02T13:53:19;97543.00;;;18.80
68012;BMP180;54794;48.348;7.878;2024-03-02T13:55:56;97539.00;;;19.30
68012;BMP180;54794;48.348;7.878;2024-03-02T13:58:29;97527.00;;;19.20
68012;BMP180;54794;48.348;7.878;2024-03-02T14:00:57;97523.00;;;18.80
68012;BMP180;54794;48.348;7.878;2024-03-02T14:03:31;97524.00;;;18.50
68012;BMP180;54794;48.348;7.878;2024-03-02T14:06:10;97516.00;;;18.60
68012;BMP180;54794;48.348;7.878;2024-03-02T14:08:37;97519.00;;;18.50
68012;BMP180;54794;48.348;7.878;2024-03-02T14:11:07;97516.00;;;17.80
68012;BMP180;54794;48.348;7.878;2024-03-02T14:13:39;97518.00;;;17.80
68012;BMP180;54794;48.348;7.878;2024-03-02T14:16:20;97515.00;;;17.90
68012;BMP180;54794;48.348;7.878;2024-03-02T14:18:50;97505.00;;;17.80
68012;BMP180;54794;48.348;7.878;2024-03-02T14:21:17;97509.00;;;18.00
68012;BMP180;54794;48.348;7.878;2024-03-02T14:23:48;97512.00;;;18.20
68012;BMP180;54794;48.348;7.878;2024-03-02T14:26:20;97510.00;;;17.50
68012;BMP180;54794;48.348;7.878;2024-03-02T14:28:52;97519.00;;;17.40